sensor_id;sensor_type;location;lat;lon;timestamp;pressure;altitude;pressure_sealevel;temperature;humidity
5298;BME280;14738;42.668;23.250;2022-08-14T00:02:25;48443.91;;;-141.90;100.00
5298;BME280;14738;42.668;23.250;2022-08-14T00:04:50;48487.56;;;-141.90;100.00
5298;BME280;14738;42.668;23.250;2022-08-14T00:07:16;48493.53;;;-141.90;100.00
5298;BME280;14738;42.668;23.250;2022-08-14T00:09:42;48455.81;;;-141.90;100.00
5298;BME280;14738;42.668;23.250;2022-08-14T00:12:08;48481.63;;;-141.90;100.00
5298;BME280;14738;42.668;23.250;2022-08-14T00:14:34;48467.72;;;-141.90;100.00
5298;BME280;14738;42.668;23.250;2022-08-14T00:16:59;48465.75;;;-141.90;100.00
5298;BME280;14738;42.668;23.250;2022-08-14T00:19:25;48445.88;;;-141.90;100.00
5298;BME280;14738;42.668;23.250;2022-08-14T00:21:51;48485.59;;;-141.90;100.00
5298;BME280;14738;42.668;23.250;2022-08-14T00:24:18;48463.75;;;-141.90;100.00
5298;BME280;14738;42.668;23.250;2022-08-14T00:26:44;48457.81;;;-141.90;100.00
5298;BME280;14738;42.668;23.250;2022-08-14T00:29:09;48449.84;;;-141.90;100.00
5298;BME280;14738;42.668;23.250;2022-08-14T00:31:35;48453.81;;;-141.90;100.00
5298;BME280;14738;42.668;23.250;2022-08-14T00:34:00;48453.81;;;-141.90;100.00
5298;BME280;14738;42.668;23.250;2022-08-14T00:36:26;48461.78;;;-141.90;100.00
5298;BME280;14738;42.668;23.250;2022-08-14T00:38:51;48449.84;;;-141.90;100.00
5298;BME280;14738;42.668;23.250;2022-08-14T00:41:16;48473.69;;;-141.90;100.00
5298;BME280;14738;42.668;23.250;2022-08-14T00:43:44;48481.63;;;-141.90;100.00
5298;BME280;14738;42.668;23.250;2022-08-14T00:46:10;48469.72;;;-141.90;100.00
5298;BME280;14738;42.668;23.250;2022-08-14T00:48:36;48465.75;;;-141.90;100.00
5298;BME280;14738;42.668;23.250;2022-08-14T00:51:04;48459.78;;;-141.90;100.00
5298;BME280;14738;42.668;23.250;2022-08-14T00:53:29;48459.78;;;-141.90;100.00
5298;BME280;14738;42.668;23.250;2022-08-14T00:55:55;48447.88;;;-141.90;100.00
5298;BME280;14738;42.668;23.250;2022-08-14T00:58:22;48437.94;;;-141.90;100.00
5298;BME280;14738;42.668;23.250;2022-08-14T01:01:08;48457.81;;;-141.90;100.00
5298;BME280;14738;42.668;23.250;2022-08-14T01:03:36;48475.66;;;-141.90;100.00
5298;BME280;14738;42.668;23.250;2022-08-14T01:06:05;48465.75;;;-141.90;100.00
5298;BME280;14738;42.668;23.250;2022-08-14T01:08:33;48461.78;;;-141.90;100.00
5298;BME280;14738;42.668;23.250;2022-08-14T01:10:59;48469.72;;;-141.90;100.00
5298;BME280;14738;42.668;23.250;2022-08-14T01:13:29;48473.69;;;-141.90;100.00
5298;BME280;14738;42.668;23.250;2022-08-14T01:15:59;48447.88;;;-141.90;100.00
5298;BME280;14738;42.668;23.250;2022-08-14T01:18:26;48449.84;;;-141.90;100.00
5298;BME280;14738;42.668;23.250;2022-08-14T01:21:11;48479.63;;;-141.90;100.00
5298;BME280;14738;42.668;23.250;2022-08-14T01:23:46;48517.34;;;-141.90;100.00
5298;BME280;14738;42.668;23.250;2022-08-14T01:26:13;48461.78;;;-141.90;100.00
5298;BME280;14738;42.668;23.250;2022-08-14T01:28:41;48489.56;;;-141.90;100.00
5298;BME280;14738;42.668;23.250;2022-08-14T01:31:13;48471.69;;;-141.90;100.00
5298;BME280;14738;42.668;23.250;2022-08-14T01:33:40;48457.81;;;-141.90;100.00
5298;BME280;14738;42.668;23.250;2022-08-14T01:36:09;48493.53;;;-141.90;100.00
5298;BME280;14738;42.668;23.250;2022-08-14T01:38:35;48461.78;;;-141.90;100.00
5298;BME280;14738;42.668;23.250;2022-08-14T01:41:07;48483.59;;;-141.90;100.00
5298;BME280;14738;42.668;23.250;2022-08-14T01:43:45;48461.78;;;-141.90;100.00
5298;BME280;14738;42.668;23.250;2022-08-14T01:46:16;48455.81;;;-141.90;100.00
5298;BME280;14738;42.668;23.250;2022-08-14T01:48:44;48493.53;;;-141.90;100.00
5298;BME280;14738;42.668;23.250;2022-08-14T01:51:12;48485.59;;;-141.90;100.00
5298;BME280;14738;42.668;23.250;2022-08-14T01:53:44;48461.78;;;-141.90;100.00
5298;BME280;14738;42.668;23.250;2022-08-14T01:56:10;48463.75;;;-141.90;100.00
5298;BME280;14738;42.668;23.250;2022-08-14T01:58:36;48477.66;;;-141.90;100.00
5298;BME280;14738;42.668;23.250;2022-08-14T02:01:03;48481.63;;;-141.90;100.00
5298;BME280;14738;42.668;23.250;2022-08-14T02:03:30;48479.63;;;-141.90;100.00
5298;BME280;14738;42.668;23.250;2022-08-14T02:06:00;48463.75;;;-141.90;100.00
5298;BME280;14738;42.668;23.250;2022-08-14T02:08:25;48483.59;;;-141.90;100.00
5298;BME280;14738;42.668;23.250;2022-08-14T02:10:52;48471.69;;;-141.90;100.00
5298;BME280;14738;42.668;23.250;2022-08-14T02:13:39;48437.94;;;-141.90;100.00
5298;BME280;14738;42.668;23.250;2022-08-14T02:16:05;48485.59;;;-141.90;100.00
5298;BME280;14738;42.668;23.250;2022-08-14T02:18:30;48471.69;;;-141.90;100.00
5298;BME280;14738;42.668;23.250;2022-08-14T02:20:57;48467.72;;;-141.90;100.00
5298;BME280;14738;42.668;23.250;2022-08-14T02:23:23;48461.78;;;-141.90;100.00
5298;BME280;14738;42.668;23.250;2022-08-14T02:25:49;48457.81;;;-141.90;100.00
5298;BME280;14738;42.668;23.250;2022-08-14T02:28:14;48447.88;;;-141.90;100.00
5298;BME280;14738;42.668;23.250;2022-08-14T02:30:39;48477.66;;;-141.90;100.00
5298;BME280;14738;42.668;23.250;2022-08-14T02:33:05;48493.53;;;-141.90;100.00
5298;BME280;14738;42.668;23.250;2022-08-14T02:35:31;48461.78;;;-141.90;100.00
5298;BME280;14738;42.668;23.250;2022-08-14T02:37:57;48445.88;;;-141.90;100.00
5298;BME280;14738;42.668;23.250;2022-08-14T02:40:23;48489.56;;;-141.90;100.00
5298;BME280;14738;42.668;23.250;2022-08-14T02:42:48;48481.63;;;-141.90;100.00
5298;BME280;14738;42.668;23.250;2022-08-14T02:45:14;48487.56;;;-141.90;100.00
5298;BME280;14738;42.668;23.250;2022-08-14T02:47:39;48481.63;;;-141.90;100.00
5298;BME280;14738;42.668;23.250;2022-08-14T02:50:05;48483.59;;;-141.90;100.00
5298;BME280;14738;42.668;23.250;2022-08-14T02:52:31;48487.56;;;-141.90;100.00
5298;BME280;14738;42.668;23.250;2022-08-14T02:54:58;48449.84;;;-141.90;100.00
5298;BME280;14738;42.668;23.250;2022-08-14T02:57:23;48451.84;;;-141.90;100.00
5298;BME280;14738;42.668;23.250;2022-08-14T02:59:52;48471.69;;;-141.90;100.00
5298;BME280;14738;42.668;23.250;2022-08-14T03:02:18;48477.66;;;-141.90;100.00
5298;BME280;14738;42.668;23.250;2022-08-14T03:04:43;48447.88;;;-141.90;100.00
5298;BME280;14738;42.668;23.250;2022-08-14T03:07:09;48443.91;;;-141.90;100.00
5298;BME280;14738;42.668;23.250;2022-08-14T03:09:35;48495.53;;;-141.90;100.00
5298;BME280;14738;42.668;23.250;2022-08-14T03:12:01;48497.50;;;-141.90;100.00
5298;BME280;14738;42.668;23.250;2022-08-14T03:14:27;48471.69;;;-141.90;100.00
5298;BME280;14738;42.668;23.250;2022-08-14T03:16:53;48437.94;;;-141.90;100.00
5298;BME280;14738;42.668;23.250;2022-08-14T03:19:18;48505.44;;;-141.90;100.00
5298;BME280;14738;42.668;23.250;2022-08-14T03:21:44;48477.66;;;-141.90;100.00
5298;BME280;14738;42.668;23.250;2022-08-14T03:24:09;48481.63;;;-141.90;100.00
5298;BME280;14738;42.668;23.250;2022-08-14T03:26:43;48469.72;;;-141.90;100.00
5298;BME280;14738;42.668;23.250;2022-08-14T03:29:10;48489.56;;;-141.90;100.00
5298;BME280;14738;42.668;23.250;2022-08-14T03:31:37;48485.59;;;-141.90;100.00
5298;BME280;14738;42.668;23.250;2022-08-14T03:34:07;48457.81;;;-141.90;100.00
5298;BME280;14738;42.668;23.250;2022-08-14T03:36:35;48469.72;;;-141.90;100.00
5298;BME280;14738;42.668;23.250;2022-08-14T03:39:03;48481.63;;;-141.90;100.00
5298;BME280;14738;42.668;23.250;2022-08-14T03:41:29;48485.59;;;-141.90;100.00
5298;BME280;14738;42.668;23.250;2022-08-14T03:44:00;48469.72;;;-141.90;100.00
5298;BME280;14738;42.668;23.250;2022-08-14T03:46:36;48469.72;;;-141.90;100.00
5298;BME280;14738;42.668;23.250;2022-08-14T03:49:03;48469.72;;;-141.90;100.00
5298;BME280;14738;42.668;23.250;2022-08-14T03:51:30;48455.81;;;-141.90;100.00
5298;BME280;14738;42.668;23.250;2022-08-14T03:53:57;48475.66;;;-141.90;100.00
5298;BME280;14738;42.668;23.250;2022-08-14T03:56:24;48491.56;;;-141.90;100.00
5298;BME280;14738;42.668;23.250;2022-08-14T03:58:52;48479.63;;;-141.90;100.00
5298;BME280;14738;42.668;23.250;2022-08-14T04:01:20;48453.81;;;-141.90;100.00
5298;BME280;14738;42.668;23.250;2022-08-14T04:03:48;48449.84;;;-141.90;100.00
5298;BME280;14738;42.668;23.250;2022-08-14T04:06:15;48479.63;;;-141.90;100.00
5298;BME280;14738;42.668;23.250;2022-08-14T04:08:42;48497.50;;;-141.90;100.00
5298;BME280;14738;42.668;23.250;2022-08-14T04:11:09;48485.59;;;-141.90;100.00
5298;BME280;14738;42.668;23.250;2022-08-14T04:13:37;48497.50;;;-141.90;100.00
5298;BME280;14738;42.668;23.250;2022-08-14T04:16:05;48481.63;;;-141.90;100.00
5298;BME280;14738;42.668;23.250;2022-08-14T04:18:32;48469.72;;;-141.90;100.00
5298;BME280;14738;42.668;23.250;2022-08-14T04:20:57;48497.50;;;-141.90;100.00
5298;BME280;14738;42.668;23.250;2022-08-14T04:23:24;48493.53;;;-141.90;100.00
5298;BME280;14738;42.668;23.250;2022-08-14T04:25:50;48469.72;;;-141.90;100.00
5298;BME280;14738;42.668;23.250;2022-08-14T04:28:19;48497.50;;;-141.90;100.00
5298;BME280;14738;42.668;23.250;2022-08-14T04:30:45;48489.56;;;-141.90;100.00
5298;BME280;14738;42.668;23.250;2022-08-14T04:33:11;48487.56;;;-141.90;100.00
5298;BME280;14738;42.668;23.250;2022-08-14T04:35:38;48469.72;;;-141.90;100.00
5298;BME280;14738;42.668;23.250;2022-08-14T04:38:08;48489.56;;;-141.90;100.00
5298;BME280;14738;42.668;23.250;2022-08-14T04:40:52;48497.50;;;-141.90;100.00
5298;BME280;14738;42.668;23.250;2022-08-14T04:43:36;48469.72;;;-141.90;100.00
5298;BME280;14738;42.668;23.250;2022-08-14T04:46:23;48501.47;;;-141.90;100.00
5298;BME280;14738;42.668;23.250;2022-08-14T04:48:49;48503.47;;;-141.90;100.00
5298;BME280;14738;42.668;23.250;2022-08-14T04:51:17;48479.63;;;-141.90;100.00
5298;BME280;14738;42.668;23.250;2022-08-14T04:53:46;48477.66;;;-141.90;100.00
5298;BME280;14738;42.668;23.250;2022-08-14T04:56:17;48495.53;;;-141.90;100.00
5298;BME280;14738;42.668;23.250;2022-08-14T04:58:48;48505.44;;;-141.90;100.00
5298;BME280;14738;42.668;23.250;2022-08-14T05:01:14;48481.63;;;-141.90;100.00
5298;BME280;14738;42.668;23.250;2022-08-14T05:03:41;48501.47;;;-141.90;100.00
5298;BME280;14738;42.668;23.250;2022-08-14T05:06:08;48477.66;;;-141.90;100.00
5298;BME280;14738;42.668;23.250;2022-08-14T05:08:35;48511.41;;;-141.90;100.00
5298;BME280;14738;42.668;23.250;2022-08-14T05:11:03;48513.38;;;-141.90;100.00
5298;BME280;14738;42.668;23.250;2022-08-14T05:13:29;48497.50;;;-141.90;100.00
5298;BME280;14738;42.668;23.250;2022-08-14T05:15:58;48479.63;;;-141.90;100.00
5298;BME280;14738;42.668;23.250;2022-08-14T05:18:32;48485.59;;;-141.90;100.00
5298;BME280;14738;42.668;23.250;2022-08-14T05:21:01;48483.59;;;-141.90;100.00
5298;BME280;14738;42.668;23.250;2022-08-14T05:23:30;48493.53;;;-141.90;100.00
5298;BME280;14738;42.668;23.250;2022-08-14T05:25:58;48521.34;;;-141.90;100.00
5298;BME280;14738;42.668;23.250;2022-08-14T05:28:30;48521.34;;;-141.90;100.00
5298;BME280;14738;42.668;23.250;2022-08-14T05:30:58;48501.47;;;-141.90;100.00
5298;BME280;14738;42.668;23.250;2022-08-14T05:33:25;48473.69;;;-141.90;100.00
5298;BME280;14738;42.668;23.250;2022-08-14T05:35:54;48517.34;;;-141.90;100.00
5298;BME280;14738;42.668;23.250;2022-08-14T05:38:29;48485.59;;;-141.90;100.00
5298;BME280;14738;42.668;23.250;2022-08-14T05:40:59;48513.38;;;-141.90;100.00
5298;BME280;14738;42.668;23.250;2022-08-14T05:43:24;48493.53;;;-141.90;100.00
5298;BME280;14738;42.668;23.250;2022-08-14T05:45:50;48485.59;;;-141.90;100.00
5298;BME280;14738;42.668;23.250;2022-08-14T05:48:15;48503.47;;;-141.90;100.00
5298;BME280;14738;42.668;23.250;2022-08-14T05:50:41;48497.50;;;-141.90;100.00
5298;BME280;14738;42.668;23.250;2022-08-14T05:53:07;48491.56;;;-141.90;100.00
5298;BME280;14738;42.668;23.250;2022-08-14T05:55:34;48517.34;;;-141.90;100.00
5298;BME280;14738;42.668;23.250;2022-08-14T05:58:00;48517.34;;;-141.90;100.00
5298;BME280;14738;42.668;23.250;2022-08-14T06:00:29;48511.41;;;-141.90;100.00
5298;BME280;14738;42.668;23.250;2022-08-14T06:02:56;48517.34;;;-141.90;100.00
5298;BME280;14738;42.668;23.250;2022-08-14T06:05:22;48525.31;;;-141.90;100.00
5298;BME280;14738;42.668;23.250;2022-08-14T06:07:47;48533.25;;;-141.90;100.00
5298;BME280;14738;42.668;23.250;2022-08-14T06:10:13;48483.59;;;-141.90;100.00
5298;BME280;14738;42.668;23.250;2022-08-14T06:12:38;48491.56;;;-141.90;100.00
5298;BME280;14738;42.668;23.250;2022-08-14T06:15:05;48481.63;;;-141.90;100.00
5298;BME280;14738;42.668;23.250;2022-08-14T06:17:31;48481.63;;;-141.90;100.00
5298;BME280;14738;42.668;23.250;2022-08-14T06:20:07;48485.59;;;-141.90;100.00
5298;BME280;14738;42.668;23.250;2022-08-14T06:22:32;48487.56;;;-141.90;100.00
5298;BME280;14738;42.668;23.250;2022-08-14T06:24:58;48489.56;;;-141.90;100.00
5298;BME280;14738;42.668;23.250;2022-08-14T06:27:23;48521.34;;;-141.90;100.00
5298;BME280;14738;42.668;23.250;2022-08-14T06:29:48;48481.63;;;-141.90;100.00
5298;BME280;14738;42.668;23.250;2022-08-14T06:32:14;48503.47;;;-141.90;100.00
5298;BME280;14738;42.668;23.250;2022-08-14T06:34:40;48493.53;;;-141.90;100.00
5298;BME280;14738;42.668;23.250;2022-08-14T06:37:05;48495.53;;;-141.90;100.00
5298;BME280;14738;42.668;23.250;2022-08-14T06:39:31;48469.72;;;-141.90;100.00
5298;BME280;14738;42.668;23.250;2022-08-14T06:41:58;48509.41;;;-141.90;100.00
5298;BME280;14738;42.668;23.250;2022-08-14T06:44:24;48523.31;;;-141.90;100.00
5298;BME280;14738;42.668;23.250;2022-08-14T06:46:50;48507.44;;;-141.90;100.00
5298;BME280;14738;42.668;23.250;2022-08-14T06:49:15;48467.72;;;-141.90;100.00
5298;BME280;14738;42.668;23.250;2022-08-14T06:51:42;48511.41;;;-141.90;100.00
5298;BME280;14738;42.668;23.250;2022-08-14T06:54:11;48503.47;;;-141.90;100.00
5298;BME280;14738;42.668;23.250;2022-08-14T06:56:38;48501.47;;;-141.90;100.00
5298;BME280;14738;42.668;23.250;2022-08-14T06:59:04;48517.34;;;-141.90;100.00
5298;BME280;14738;42.668;23.250;2022-08-14T07:01:30;48493.53;;;-141.90;100.00
5298;BME280;14738;42.668;23.250;2022-08-14T07:04:14;48497.50;;;-141.90;100.00
5298;BME280;14738;42.668;23.250;2022-08-14T07:06:58;48483.59;;;-141.90;100.00
5298;BME280;14738;42.668;23.250;2022-08-14T07:09:23;48495.53;;;-141.90;100.00
5298;BME280;14738;42.668;23.250;2022-08-14T07:11:50;48493.53;;;-141.90;100.00
5298;BME280;14738;42.668;23.250;2022-08-14T07:14:15;48519.34;;;-141.90;100.00
5298;BME280;14738;42.668;23.250;2022-08-14T07:16:41;48529.28;;;-141.90;100.00
5298;BME280;14738;42.668;23.250;2022-08-14T07:19:07;48507.44;;;-141.90;100.00
5298;BME280;14738;42.668;23.250;2022-08-14T07:21:34;48461.78;;;-141.90;100.00
5298;BME280;14738;42.668;23.250;2022-08-14T07:23:59;48513.38;;;-141.90;100.00
5298;BME280;14738;42.668;23.250;2022-08-14T07:26:25;48517.34;;;-141.90;100.00
5298;BME280;14738;42.668;23.250;2022-08-14T07:28:50;48511.41;;;-141.90;100.00
5298;BME280;14738;42.668;23.250;2022-08-14T07:31:16;48515.38;;;-141.90;100.00
5298;BME280;14738;42.668;23.250;2022-08-14T07:33:44;48513.38;;;-141.90;100.00
5298;BME280;14738;42.668;23.250;2022-08-14T07:36:12;48513.38;;;-141.90;100.00
5298;BME280;14738;42.668;23.250;2022-08-14T07:38:38;48513.38;;;-141.90;100.00
5298;BME280;14738;42.668;23.250;2022-08-14T07:41:09;48525.31;;;-141.90;100.00
5298;BME280;14738;42.668;23.250;2022-08-14T07:43:35;48507.44;;;-141.90;100.00
5298;BME280;14738;42.668;23.250;2022-08-14T07:46:02;48541.19;;;-141.90;100.00
5298;BME280;14738;42.668;23.250;2022-08-14T07:48:28;48495.53;;;-141.90;100.00
5298;BME280;14738;42.668;23.250;2022-08-14T07:50:55;48553.09;;;-141.90;100.00
5298;BME280;14738;42.668;23.250;2022-08-14T07:53:21;48539.19;;;-141.90;100.00
5298;BME280;14738;42.668;23.250;2022-08-14T07:55:49;48533.25;;;-141.90;100.00
5298;BME280;14738;42.668;23.250;2022-08-14T07:58:18;48551.09;;;-141.90;100.00
5298;BME280;14738;42.668;23.250;2022-08-14T08:00:44;48557.06;;;-141.90;100.00
5298;BME280;14738;42.668;23.250;2022-08-14T08:03:11;48561.03;;;-141.90;100.00
5298;BME280;14738;42.668;23.250;2022-08-14T08:05:38;48533.25;;;-141.90;100.00
5298;BME280;14738;42.668;23.250;2022-08-14T08:08:06;48525.31;;;-141.90;100.00
5298;BME280;14738;42.668;23.250;2022-08-14T08:10:32;48519.34;;;-141.90;100.00
5298;BME280;14738;42.668;23.250;2022-08-14T08:18:07;48525.31;;;-141.90;100.00
5298;BME280;14738;42.668;23.250;2022-08-14T08:20:36;48568.97;;;-141.90;100.00
5298;BME280;14738;42.668;23.250;2022-08-14T08:23:04;48545.16;;;-141.90;100.00
5298;BME280;14738;42.668;23.250;2022-08-14T08:25:31;48537.22;;;-141.90;100.00
5298;BME280;14738;42.668;23.250;2022-08-14T08:28:08;48527.28;;;-141.90;100.00
5298;BME280;14738;42.668;23.250;2022-08-14T08:30:38;48531.25;;;-141.90;100.00
5298;BME280;14738;42.668;23.250;2022-08-14T08:33:06;48541.19;;;-141.90;100.00
5298;BME280;14738;42.668;23.250;2022-08-14T08:35:34;48547.13;;;-141.90;100.00
5298;BME280;14738;42.668;23.250;2022-08-14T08:38:09;48545.16;;;-141.90;100.00
5298;BME280;14738;42.668;23.250;2022-08-14T08:40:38;48511.41;;;-141.90;100.00
5298;BME280;14738;42.668;23.250;2022-08-14T08:43:06;48533.25;;;-141.90;100.00
5298;BME280;14738;42.668;23.250;2022-08-14T08:45:34;48533.25;;;-141.90;100.00
5298;BME280;14738;42.668;23.250;2022-08-14T08:48:00;48545.16;;;-141.90;100.00
5298;BME280;14738;42.668;23.250;2022-08-14T08:50:33;48517.34;;;-141.90;100.00
5298;BME280;14738;42.668;23.250;2022-08-14T08:53:04;48574.94;;;-141.90;100.00
5298;BME280;14738;42.668;23.250;2022-08-14T08:58:12;48596.78;;;-141.90;100.00
5298;BME280;14738;42.668;23.250;2022-08-14T09:00:40;48616.63;;;-141.90;100.00
5298;BME280;14738;42.668;23.250;2022-08-14T09:03:09;48614.63;;;-141.90;100.00
5298;BME280;14738;42.668;23.250;2022-08-14T09:05:48;48644.41;;;-141.90;100.00
5298;BME280;14738;42.668;23.250;2022-08-14T09:08:25;48588.84;;;-141.90;100.00
5298;BME280;14738;42.668;23.250;2022-08-14T09:10:52;48596.78;;;-141.90;100.00
5298;BME280;14738;42.668;23.250;2022-08-14T09:13:19;48592.81;;;-141.90;100.00
5298;BME280;14738;42.668;23.250;2022-08-14T09:15:46;48592.81;;;-141.90;100.00
5298;BME280;14738;42.668;23.250;2022-08-14T09:18:15;48620.59;;;-141.90;100.00
5298;BME280;14738;42.668;23.250;2022-08-14T09:20:52;48596.78;;;-141.90;100.00
5298;BME280;14738;42.668;23.250;2022-08-14T09:23:18;48594.78;;;-141.90;100.00
5298;BME280;14738;42.668;23.250;2022-08-14T09:25:46;48584.84;;;-141.90;100.00
5298;BME280;14738;42.668;23.250;2022-08-14T09:28:14;48606.69;;;-141.90;100.00
5298;BME280;14738;42.668;23.250;2022-08-14T09:30:51;48592.81;;;-141.90;100.00
5298;BME280;14738;42.668;23.250;2022-08-14T09:33:28;48588.84;;;-141.90;100.00
5298;BME280;14738;42.668;23.250;2022-08-14T09:36:17;48624.56;;;-141.90;100.00
5298;BME280;14738;42.668;23.250;2022-08-14T09:38:57;48624.56;;;-141.90;100.00
5298;BME280;14738;42.668;23.250;2022-08-14T09:41:59;48636.47;;;-141.90;100.00
5298;BME280;14738;42.668;23.250;2022-08-14T09:44:49;48644.41;;;-141.90;100.00
5298;BME280;14738;42.668;23.250;2022-08-14T09:47:42;48590.81;;;-141.90;100.00
5298;BME280;14738;42.668;23.250;2022-08-14T09:52:53;48594.78;;;-141.90;100.00
5298;BME280;14738;42.668;23.250;2022-08-14T09:55:20;48640.44;;;-141.90;100.00
5298;BME280;14738;42.668;23.250;2022-08-14T09:57:46;48626.56;;;-141.90;100.00
5298;BME280;14738;42.668;23.250;2022-08-14T10:00:13;48654.34;;;-141.90;100.00
5298;BME280;14738;42.668;23.250;2022-08-14T10:02:55;48650.38;;;-141.90;100.00
5298;BME280;14738;42.668;23.250;2022-08-14T10:05:37;48654.34;;;-141.90;100.00
5298;BME280;14738;42.668;23.250;2022-08-14T10:08:03;48660.31;;;-141.90;100.00
5298;BME280;14738;42.668;23.250;2022-08-14T10:10:31;48664.28;;;-141.90;100.00
5298;BME280;14738;42.668;23.250;2022-08-14T10:12:58;48662.28;;;-141.90;100.00
5298;BME280;14738;42.668;23.250;2022-08-14T10:15:26;48660.31;;;-141.90;100.00
5298;BME280;14738;42.668;23.250;2022-08-14T10:18:10;48612.66;;;-141.90;100.00
5298;BME280;14738;42.668;23.250;2022-08-14T10:20:42;48616.63;;;-141.90;100.00
5298;BME280;14738;42.668;23.250;2022-08-14T10:23:19;48624.56;;;-141.90;100.00
5298;BME280;14738;42.668;23.250;2022-08-14T10:25:47;48608.69;;;-141.90;100.00
5298;BME280;14738;42.668;23.250;2022-08-14T10:28:20;48602.72;;;-141.90;100.00
5298;BME280;14738;42.668;23.250;2022-08-14T10:30:48;48592.81;;;-141.90;100.00
5298;BME280;14738;42.668;23.250;2022-08-14T10:33:29;48640.44;;;-141.90;100.00
5298;BME280;14738;42.668;23.250;2022-08-14T10:35:57;48598.75;;;-141.90;100.00
5298;BME280;14738;42.668;23.250;2022-08-14T10:38:40;48596.78;;;-141.90;100.00
5298;BME280;14738;42.668;23.250;2022-08-14T10:41:15;48596.78;;;-141.90;100.00
5298;BME280;14738;42.668;23.250;2022-08-14T10:43:43;48576.91;;;-141.90;100.00
5298;BME280;14738;42.668;23.250;2022-08-14T10:46:14;48600.75;;;-141.90;100.00
5298;BME280;14738;42.668;23.250;2022-08-14T10:48:41;48612.66;;;-141.90;100.00
5298;BME280;14738;42.668;23.250;2022-08-14T10:51:07;48598.75;;;-141.90;100.00
5298;BME280;14738;42.668;23.250;2022-08-14T10:53:34;48616.63;;;-141.90;100.00
5298;BME280;14738;42.668;23.250;2022-08-14T10:56:05;48652.38;;;-141.90;100.00
5298;BME280;14738;42.668;23.250;2022-08-14T10:58:32;48642.44;;;-141.90;100.00
5298;BME280;14738;42.668;23.250;2022-08-14T11:01:00;48624.56;;;-141.90;100.00
5298;BME280;14738;42.668;23.250;2022-08-14T11:03:40;48616.63;;;-141.90;100.00
5298;BME280;14738;42.668;23.250;2022-08-14T11:06:32;48626.56;;;-141.90;100.00
5298;BME280;14738;42.668;23.250;2022-08-14T11:09:10;48715.91;;;-141.90;100.00
5298;BME280;14738;42.668;23.250;2022-08-14T11:11:42;48709.94;;;-141.90;42.45
5298;BME280;14738;42.668;23.250;2022-08-14T11:14:07;48715.91;;;-141.90;43.02
5298;BME280;14738;42.668;23.250;2022-08-14T11:16:33;48662.28;;;-141.90;43.00
5298;BME280;14738;42.668;23.250;2022-08-14T11:19:02;48676.19;;;-141.90;41.29
5298;BME280;14738;42.668;23.250;2022-08-14T11:21:28;48676.19;;;-141.90;41.98
5298;BME280;14738;42.668;23.250;2022-08-14T11:23:55;48688.09;;;-141.90;40.77
5298;BME280;14738;42.668;23.250;2022-08-14T11:26:23;48688.09;;;-141.90;41.75
5298;BME280;14738;42.668;23.250;2022-08-14T11:28:52;48705.97;;;-141.90;42.44
5298;BME280;14738;42.668;23.250;2022-08-14T11:31:22;48674.19;;;-141.90;43.23
5298;BME280;14738;42.668;23.250;2022-08-14T11:33:49;48664.28;;;-141.90;42.08
5298;BME280;14738;42.668;23.250;2022-08-14T11:36:23;48654.34;;;-141.90;42.44
5298;BME280;14738;42.668;23.250;2022-08-14T11:38:51;48660.31;;;-141.90;43.97
5298;BME280;14738;42.668;23.250;2022-08-14T11:41:16;48660.31;;;-141.90;45.78
5298;BME280;14738;42.668;23.250;2022-08-14T11:43:45;48628.53;;;-141.90;44.94
5298;BME280;14738;42.668;23.250;2022-08-14T11:46:11;48672.22;;;-141.90;44.24
5298;BME280;14738;42.668;23.250;2022-08-14T11:48:52;48654.34;;;-141.90;43.49
5298;BME280;14738;42.668;23.250;2022-08-14T11:51:23;48666.25;;;-141.90;43.58
5298;BME280;14738;42.668;23.250;2022-08-14T11:54:01;48640.44;;;-141.90;43.15
5298;BME280;14738;42.668;23.250;2022-08-14T11:56:35;48646.41;;;-141.90;44.79
5298;BME280;14738;42.668;23.250;2022-08-14T11:59:02;48648.38;;;-141.90;45.65
5298;BME280;14738;42.668;23.250;2022-08-14T12:01:28;48668.25;;;-141.90;44.12
5298;BME280;14738;42.668;23.250;2022-08-14T12:04:10;48644.41;;;-141.90;45.10
5298;BME280;14738;42.668;23.250;2022-08-14T12:06:50;48640.44;;;-141.90;44.40
5298;BME280;14738;42.668;23.250;2022-08-14T12:09:34;48608.69;;;-141.90;43.19
5298;BME280;14738;42.668;23.250;2022-08-14T12:12:11;48614.63;;;-141.90;43.62
5298;BME280;14738;42.668;23.250;2022-08-14T12:14:56;48608.69;;;-141.90;45.39
5298;BME280;14738;42.668;23.250;2022-08-14T12:17:30;48646.41;;;-141.90;44.79
5298;BME280;14738;42.668;23.250;2022-08-14T12:20:04;48598.75;;;-141.90;46.85
5298;BME280;14738;42.668;23.250;2022-08-14T12:22:32;48630.53;;;-141.90;46.20
5298;BME280;14738;42.668;23.250;2022-08-14T12:24:59;48604.72;;;-141.90;45.93
5298;BME280;14738;42.668;23.250;2022-08-14T12:27:38;48620.59;;;-141.90;46.01
5298;BME280;14738;42.668;23.250;2022-08-14T12:30:04;48596.78;;;-141.90;47.65
5298;BME280;14738;42.668;23.250;2022-08-14T12:32:42;48596.78;;;-141.90;46.84
5298;BME280;14738;42.668;23.250;2022-08-14T12:35:08;48604.72;;;-141.90;45.79
5298;BME280;14738;42.668;23.250;2022-08-14T12:37:34;48608.69;;;-141.90;46.14
5298;BME280;14738;42.668;23.250;2022-08-14T12:40:12;48592.81;;;-141.90;46.82
5298;BME280;14738;42.668;23.250;2022-08-14T12:42:38;48612.66;;;-141.90;47.33
5298;BME280;14738;42.668;23.250;2022-08-14T12:45:04;48584.84;;;-141.90;47.28
5298;BME280;14738;42.668;23.250;2022-08-14T12:47:30;48608.69;;;-141.90;48.02
5298;BME280;14738;42.668;23.250;2022-08-14T12:49:57;48642.44;;;-141.90;48.14
5298;BME280;14738;42.668;23.250;2022-08-14T12:52:33;48620.59;;;-141.90;46.40